Wadesville, Pennsylvania
Current Conditions -  °F | °C
As of 1:58 PM on Thursday 23 Oct 2014 (Local Time) from KMUI Reporting Station
Overcast Overcast  
Wind Chill: 57°   Ceiling: 3000
Heat Index: 57°   Visibility: 10mi
Dew Point: 47°   Wind: 7mph
Humidity: 70%   Direction: NA
Pressure: 29.84"   Gusts: 21mph
Location:  40.6882°N, 76.264°W
Report Text: KMUI 231758Z AUTO VRB06G18KT 10SM OVC030 14/09 A2984 RMK AO2 SLP108 T01390086 10140 20110 56010 $
Loading
Personal Weather Stations






























Interactive Weather Map
Tropical Storm Tracking
New forecast layout! Learn more

10-Day Weather Forecast

Advertisements
Track Severe Weather on mobile